Erie (ERI/KERI)

Map

Information

Location
Erie, PA
Local Time
14:17 / 2:17 pm
GMT Time
18:17 / 6:17 pm
Gates
4
No FAA reported delays
METAR KERI 201751Z 33004KT 10SM CLR 25/18 A3003 RMK AO2 SLP164 T02500183 10261 20172 58005 $
TAF KERI 201720Z 2018/2118 VRB05KT P6SM SKC